Latest Weather Observations for Ocean Reef

IDW60901

Issued at 1:01 am WST Sunday 1 May 2016 (issued every 10 minutes, with the page automatically refreshed every 10 minutes)

About weather observations | Map of Perth area stations | Latest observations for Perth area | Other Formats
Station Details ID: 009214 Name: OCEAN REEF Lat: -31.76 Lon: 115.73 Height: 10.0 m
Data from the previous 72 hours. | See also: Recent months at Ocean Reef
Date/Time
WST
Tmp

°C
App
Tmp
°C
Dew
Point
°C
Rel
Hum
%
Delta-T

°C
Wind Press
QNH
hPa
Press
MSL
hPa
Rain
since
9 am
mm
Dir
 
Spd
km/h
Gust
km/h
Spd
kts
Gust
kts
01/01:00am - - - - - E 13 17 7 9 - - -
01/12:30am - - - - - ESE 9 13 5 7 - - -
01/12:00am - - - - - ESE 11 17 6 9 - - -
 
Date/Time
WST
Tmp

°C
App
Tmp
°C
Dew
Point
°C
Rel
Hum
%
Delta-T

°C
Wind Press
QNH
hPa
Press
MSL
hPa
Rain
since
9 am
mm
Dir
 
Spd
km/h
Gust
km/h
Spd
kts
Gust
kts
30/11:30pm - - - - - SE 11 13 6 7 - - -
30/11:00pm - - - - - SSE 11 15 6 8 - - -
30/10:30pm - - - - - SE 11 17 6 9 - - -
30/10:00pm - - - - - ESE 11 15 6 8 - - -
30/09:30pm - - - - - SE 13 15 7 8 - - -
30/09:00pm - - - - - SE 13 15 7 8 - - -
30/08:30pm - - - - - SE 13 17 7 9 - - -
30/08:00pm - - - - - SE 15 17 8 9 - - -
30/07:30pm - - - - - SE 13 13 7 7 - - -
30/07:00pm - - - - - SSE 13 15 7 8 - - -
30/06:30pm - - - - - S 15 20 8 11 - - -
30/06:00pm - - - - - SSW 19 26 10 14 - - -
30/05:30pm - - - - - SSW 20 26 11 14 - - -
30/05:00pm - - - - - SSW 20 26 11 14 - - -
30/04:30pm - - - - - SSW 24 28 13 15 - - -
30/04:00pm - - - - - S 19 26 10 14 - - -
30/03:30pm - - - - - SSW 24 28 13 15 - - -
30/03:00pm - - - - - SSW 22 26 12 14 - - -
30/02:30pm - - - - - SSW 19 24 10 13 - - -
30/02:00pm - - - - - SSW 17 22 9 12 - - -
30/01:30pm - - - - - SSW 17 24 9 13 - - -
30/01:00pm - - - - - S 20 28 11 15 - - -
30/12:30pm - - - - - S 15 19 8 10 - - -
30/12:00pm - - - - - SE 13 20 7 11 - - -
30/11:30am - - - - - SSE 15 24 8 13 - - -
30/11:00am - - - - - SE 13 17 7 9 - - -
30/10:30am - - - - - SE 11 17 6 9 - - -
30/10:00am - - - - - ESE 13 19 7 10 - - -
30/09:30am - - - - - ESE 13 19 7 10 - - -
30/09:00am - - - - - E 17 22 9 12 - - -
30/08:30am - - - - - ESE 13 17 7 9 - - -
30/08:00am - - - - - ESE 15 20 8 11 - - -
30/07:30am - - - - - ESE 15 19 8 10 - - -
30/07:00am - - - - - ESE 13 17 7 9 - - -
30/06:30am - - - - - ESE 15 19 8 10 - - -
30/06:00am - - - - - ESE 13 17 7 9 - - -
30/05:30am - - - - - ESE 17 24 9 13 - - -
30/05:00am - - - - - ESE 13 17 7 9 - - -
30/04:30am - - - - - SE 17 24 9 13 - - -
30/04:00am - - - - - ESE 17 24 9 13 - - -
30/03:30am - - - - - SE 19 26 10 14 - - -
30/03:00am - - - - - SE 17 22 9 12 - - -
30/02:30am - - - - - SE 17 26 9 14 - - -
30/02:00am - - - - - SE 17 24 9 13 - - -
30/01:30am - - - - - SE 17 24 9 13 - - -
30/01:00am - - - - - SSE 22 33 12 18 - - -
30/12:30am - - - - - S 35 54 19 29 - - -
30/12:08am - - - - - S 22 48 12 26 - - -
30/12:07am - - - - - S 19 41 10 22 - - -
30/12:00am - - - - - SSE 13 17 7 9 - - -
 
Date/Time
WST
Tmp

°C
App
Tmp
°C
Dew
Point
°C
Rel
Hum
%
Delta-T

°C
Wind Press
QNH
hPa
Press
MSL
hPa
Rain
since
9 am
mm
Dir
 
Spd
km/h
Gust
km/h
Spd
kts
Gust
kts
29/11:30pm - - - - - SSW 20 28 11 15 - - -
29/11:00pm - - - - - SW 22 32 12 17 - - -
29/10:30pm - - - - - SW 26 35 14 19 - - -
29/10:00pm - - - - - SW 32 39 17 21 - - -
29/09:30pm - - - - - SW 43 56 23 30 - - -
29/09:26pm - - - - - WSW 41 54 22 29 - - -
29/09:07pm - - - - - WSW 44 63 24 34 - - -
29/09:00pm - - - - - WSW 46 63 25 34 - - -
29/08:49pm - - - - - WSW 43 56 23 30 - - -
29/08:39pm - - - - - W 43 65 23 35 - - -
29/08:30pm - - - - - W 44 50 24 27 - - -
29/08:00pm - - - - - W 41 48 22 26 - - -
29/07:30pm - - - - - W 39 44 21 24 - - -
29/07:00pm - - - - - W 39 48 21 26 - - -
29/06:30pm - - - - - W 41 48 22 26 - - -
29/06:00pm - - - - - W 35 43 19 23 - - -
29/05:30pm - - - - - W 37 46 20 25 - - -
29/05:00pm - - - - - W 39 48 21 26 - - -
29/04:30pm - - - - - W 43 50 23 27 - - -
29/04:00pm - - - - - W 35 46 19 25 - - -
29/03:30pm - - - - - W 37 44 20 24 - - -
29/03:23pm - - - - - W 35 41 19 22 - - -
29/03:15pm - - - - - WNW 37 44 20 24 - - -
29/03:00pm - - - - - WSW 35 41 19 22 - - -
29/02:30pm - - - - - WSW 39 50 21 27 - - -
29/02:00pm - - - - - W 35 39 19 21 - - -
29/01:30pm - - - - - W 37 44 20 24 - - -
29/01:00pm - - - - - W 39 48 21 26 - - -
29/12:30pm - - - - - W 28 35 15 19 - - -
29/12:00pm - - - - - W 39 52 21 28 - - -
29/11:30am - - - - - W 35 43 19 23 - - -
29/11:00am - - - - - NW 33 48 18 26 - - -
29/10:30am - - - - - WNW 30 35 16 19 - - -
29/10:00am - - - - - W 28 41 15 22 - - -
29/09:30am - - - - - WNW 32 41 17 22 - - -
29/09:00am - - - - - WNW 28 33 15 18 - - -
29/08:30am - - - - - W 32 35 17 19 - - -
29/08:00am - - - - - W 28 33 15 18 - - -
29/07:30am - - - - - W 17 20 9 11 - - -
29/07:00am - - - - - WNW 32 44 17 24 - - -
29/06:30am - - - - - W 30 33 16 18 - - -
29/06:00am - - - - - WSW 30 35 16 19 - - -
29/05:30am - - - - - WSW 30 35 16 19 - - -
29/05:00am - - - - - WSW 28 33 15 18 - - -
29/04:30am - - - - - WSW 32 37 17 20 - - -
29/04:00am - - - - - WSW 28 35 15 19 - - -
29/03:30am - - - - - WSW 30 39 16 21 - - -
29/03:00am - - - - - WSW 28 35 15 19 - - -
29/02:30am - - - - - WSW 30 35 16 19 - - -
29/02:00am - - - - - WSW 32 35 17 19 - - -
29/01:30am - - - - - WSW 28 33 15 18 - - -
29/01:00am - - - - - SW 24 32 13 17 - - -
29/12:30am - - - - - WSW 28 35 15 19 - - -
29/12:00am - - - - - WSW 30 35 16 19 - - -
 
Date/Time
WST
Tmp

°C
App
Tmp
°C
Dew
Point
°C
Rel
Hum
%
Delta-T

°C
Wind Press
QNH
hPa
Press
MSL
hPa
Rain
since
9 am
mm
Dir
 
Spd
km/h
Gust
km/h
Spd
kts
Gust
kts
28/11:30pm - - - - - WSW 24 30 13 16 - - -
28/11:00pm - - - - - SW 30 35 16 19 - - -
28/10:30pm - - - - - SW 32 37 17 20 - - -
28/10:03pm - - - - - SW 30 48 16 26 - - -
28/10:00pm - - - - - SW 35 48 19 26 - - -
28/09:30pm - - - - - SW 28 37 15 20 - - -
28/09:00pm - - - - - SW 26 33 14 18 - - -
28/08:30pm - - - - - SW 26 35 14 19 - - -
28/08:00pm - - - - - SW 26 35 14 19 - - -
28/07:30pm - - - - - SW 32 37 17 20 - - -
28/07:00pm - - - - - SW 30 37 16 20 - - -
28/06:30pm - - - - - SW 32 41 17 22 - - -
28/06:00pm - - - - - SW 37 48 20 26 - - -
28/05:30pm - - - - - SW 32 41 17 22 - - -
28/05:00pm - - - - - SW 28 33 15 18 - - -
28/04:30pm - - - - - WSW 30 39 16 21 - - -
28/04:00pm - - - - - SW 37 50 20 27 - - -
28/03:30pm - - - - - WSW 41 52 22 28 - - -
28/03:24pm - - - - - W 32 50 17 27 - - -
28/03:00pm - - - - - WSW 43 54 23 29 - - -
28/02:46pm - - - - - WSW 33 52 18 28 - - -
28/02:30pm - - - - - W 39 44 21 24 - - -
28/02:00pm - - - - - WNW 37 43 20 23 - - -
28/01:30pm - - - - - WNW 32 39 17 21 - - -
28/01:00pm - - - - - W 43 59 23 32 - - -
28/12:55pm - - - - - W 35 57 19 31 - - -
28/12:30pm - - - - - W 32 37 17 20 - - -
28/12:00pm - - - - - W 37 57 20 31 - - -
28/11:30am - - - - - WNW 37 43 20 23 - - -
28/11:00am - - - - - WNW 33 39 18 21 - - -
28/10:30am - - - - - WNW 35 44 19 24 - - -
28/10:00am - - - - - WNW 39 48 21 26 - - -
28/09:30am - - - - - W 35 41 19 22 - - -
28/09:00am - - - - - WNW 32 35 17 19 - - -
28/08:30am - - - - - W 32 41 17 22 - - -
28/08:00am - - - - - W 48 57 26 31 - - -
28/07:53am - - - - - WNW 35 54 19 29 - - -
28/07:30am - - - - - W 32 39 17 21 - - -
28/07:00am - - - - - W 33 37 18 20 - - -
28/06:30am - - - - - WNW 32 39 17 21 - - -
28/06:00am - - - - - W 24 30 13 16 - - -
28/05:30am - - - - - W 37 44 20 24 - - -
28/05:00am - - - - - W 32 39 17 21 - - -
28/04:30am - - - - - W 32 41 17 22 - - -
28/04:00am - - - - - WNW 30 35 16 19 - - -
28/03:30am - - - - - W 24 32 13 17 - - -
28/03:00am - - - - - WSW 20 33 11 18 - - -
28/02:30am - - - - - NNW 11 17 6 9 - - -
28/02:00am - - - - - WNW 6 11 3 6 - - -
28/01:30am - - - - - NNE 13 17 7 9 - - -

Latest Capital City Observations: Canberra | Sydney | Melbourne | Brisbane | Adelaide | Perth | Hobart | Darwin

Other Formats:

Comma delimited format used in spreadsheet applications
http://www.bom.gov.au/fwo/IDW60901/IDW60901.94607.axf

JavaScript Object Notation format (JSON) in row-major order
http://www.bom.gov.au/fwo/IDW60901/IDW60901.94607.json